sensor_id;sensor_type;location;lat;lon;timestamp;P1;durP1;ratioP1;P2;durP2;ratioP2
11490;SDS011;5802;52.832;4.758;2023-04-03T00:00:29;2.38;;;0.98;;
11490;SDS011;5802;52.832;4.758;2023-04-03T00:02:56;1.70;;;0.80;;
11490;SDS011;5802;52.832;4.758;2023-04-03T00:05:23;2.45;;;0.93;;
11490;SDS011;5802;52.832;4.758;2023-04-03T00:07:50;1.30;;;0.70;;
11490;SDS011;5802;52.832;4.758;2023-04-03T00:10:18;1.75;;;0.80;;
11490;SDS011;5802;52.832;4.758;2023-04-03T00:12:45;1.30;;;0.57;;
11490;SDS011;5802;52.832;4.758;2023-04-03T00:15:11;1.45;;;0.75;;
11490;SDS011;5802;52.832;4.758;2023-04-03T00:17:38;1.45;;;0.68;;
11490;SDS011;5802;52.832;4.758;2023-04-03T00:20:05;1.65;;;0.75;;
11490;SDS011;5802;52.832;4.758;2023-04-03T00:22:33;1.83;;;0.70;;
11490;SDS011;5802;52.832;4.758;2023-04-03T00:25:00;1.50;;;0.80;;
11490;SDS011;5802;52.832;4.758;2023-04-03T00:27:28;1.35;;;0.60;;
11490;SDS011;5802;52.832;4.758;2023-04-03T00:29:54;0.70;;;0.57;;
11490;SDS011;5802;52.832;4.758;2023-04-03T00:32:21;1.63;;;0.80;;
11490;SDS011;5802;52.832;4.758;2023-04-03T00:34:48;1.17;;;0.68;;
11490;SDS011;5802;52.832;4.758;2023-04-03T00:37:14;2.40;;;0.80;;
11490;SDS011;5802;52.832;4.758;2023-04-03T00:39:41;1.38;;;0.70;;
11490;SDS011;5802;52.832;4.758;2023-04-03T00:42:08;2.28;;;0.77;;
11490;SDS011;5802;52.832;4.758;2023-04-03T00:47:54;1.63;;;0.88;;
11490;SDS011;5802;52.832;4.758;2023-04-03T00:50:22;2.15;;;0.80;;
11490;SDS011;5802;52.832;4.758;2023-04-03T00:52:49;1.30;;;0.80;;
11490;SDS011;5802;52.832;4.758;2023-04-03T00:55:16;2.88;;;0.80;;
11490;SDS011;5802;52.832;4.758;2023-04-03T00:57:43;1.65;;;1.00;;
11490;SDS011;5802;52.832;4.758;2023-04-03T01:00:13;1.70;;;0.85;;
11490;SDS011;5802;52.832;4.758;2023-04-03T01:02:42;1.88;;;0.80;;
11490;SDS011;5802;52.832;4.758;2023-04-03T01:05:11;2.97;;;0.70;;
11490;SDS011;5802;52.832;4.758;2023-04-03T01:07:38;1.10;;;0.60;;
11490;SDS011;5802;52.832;4.758;2023-04-03T01:10:06;1.08;;;0.60;;
11490;SDS011;5802;52.832;4.758;2023-04-03T01:12:36;1.40;;;0.60;;
11490;SDS011;5802;52.832;4.758;2023-04-03T01:15:05;1.42;;;0.70;;
11490;SDS011;5802;52.832;4.758;2023-04-03T01:17:34;1.67;;;0.77;;
11490;SDS011;5802;52.832;4.758;2023-04-03T01:20:13;1.33;;;0.68;;
11490;SDS011;5802;52.832;4.758;2023-04-03T01:23:06;1.08;;;0.65;;
11490;SDS011;5802;52.832;4.758;2023-04-03T01:25:44;1.60;;;0.60;;
11490;SDS011;5802;52.832;4.758;2023-04-03T01:28:13;1.10;;;0.63;;
11490;SDS011;5802;52.832;4.758;2023-04-03T01:30:43;1.02;;;0.70;;
11490;SDS011;5802;52.832;4.758;2023-04-03T01:33:14;2.15;;;0.47;;
11490;SDS011;5802;52.832;4.758;2023-04-03T01:35:41;1.08;;;0.70;;
11490;SDS011;5802;52.832;4.758;2023-04-03T01:38:08;1.00;;;0.70;;
11490;SDS011;5802;52.832;4.758;2023-04-03T01:40:35;0.73;;;0.52;;
11490;SDS011;5802;52.832;4.758;2023-04-03T01:43:02;0.82;;;0.60;;
11490;SDS011;5802;52.832;4.758;2023-04-03T01:45:28;0.65;;;0.50;;
11490;SDS011;5802;52.832;4.758;2023-04-03T01:47:56;0.68;;;0.40;;
11490;SDS011;5802;52.832;4.758;2023-04-03T01:50:24;0.70;;;0.70;;
11490;SDS011;5802;52.832;4.758;2023-04-03T01:52:50;1.20;;;0.68;;
11490;SDS011;5802;52.832;4.758;2023-04-03T01:55:17;0.88;;;0.70;;
11490;SDS011;5802;52.832;4.758;2023-04-03T01:57:44;0.90;;;0.50;;
11490;SDS011;5802;52.832;4.758;2023-04-03T02:00:11;0.57;;;0.47;;
11490;SDS011;5802;52.832;4.758;2023-04-03T02:02:38;1.15;;;0.60;;
11490;SDS011;5802;52.832;4.758;2023-04-03T02:05:05;0.93;;;0.70;;
11490;SDS011;5802;52.832;4.758;2023-04-03T02:07:34;0.70;;;0.50;;
11490;SDS011;5802;52.832;4.758;2023-04-03T02:10:01;0.93;;;0.38;;
11490;SDS011;5802;52.832;4.758;2023-04-03T02:12:28;0.70;;;0.40;;
11490;SDS011;5802;52.832;4.758;2023-04-03T02:14:55;0.47;;;0.47;;
11490;SDS011;5802;52.832;4.758;2023-04-03T02:17:21;0.70;;;0.55;;
11490;SDS011;5802;52.832;4.758;2023-04-03T02:19:48;0.60;;;0.47;;
11490;SDS011;5802;52.832;4.758;2023-04-03T02:22:14;0.88;;;0.50;;
11490;SDS011;5802;52.832;4.758;2023-04-03T02:24:43;0.40;;;0.40;;
11490;SDS011;5802;52.832;4.758;2023-04-03T02:27:10;0.50;;;0.50;;
11490;SDS011;5802;52.832;4.758;2023-04-03T02:29:36;0.63;;;0.50;;
11490;SDS011;5802;52.832;4.758;2023-04-03T02:32:03;0.98;;;0.50;;
11490;SDS011;5802;52.832;4.758;2023-04-03T02:34:31;0.60;;;0.52;;
11490;SDS011;5802;52.832;4.758;2023-04-03T02:36:57;1.00;;;0.60;;
11490;SDS011;5802;52.832;4.758;2023-04-03T02:39:24;0.65;;;0.40;;
11490;SDS011;5802;52.832;4.758;2023-04-03T02:41:52;0.75;;;0.57;;
11490;SDS011;5802;52.832;4.758;2023-04-03T02:44:19;1.88;;;0.70;;
11490;SDS011;5802;52.832;4.758;2023-04-03T02:46:45;0.50;;;0.47;;
11490;SDS011;5802;52.832;4.758;2023-04-03T02:49:12;0.40;;;0.40;;
11490;SDS011;5802;52.832;4.758;2023-04-03T02:51:39;0.50;;;0.35;;
11490;SDS011;5802;52.832;4.758;2023-04-03T02:54:05;0.40;;;0.40;;
11490;SDS011;5802;52.832;4.758;2023-04-03T02:56:32;0.65;;;0.50;;
11490;SDS011;5802;52.832;4.758;2023-04-03T02:59:00;1.30;;;0.50;;
11490;SDS011;5802;52.832;4.758;2023-04-03T03:01:27;0.50;;;0.40;;
11490;SDS011;5802;52.832;4.758;2023-04-03T03:03:56;1.30;;;0.50;;
11490;SDS011;5802;52.832;4.758;2023-04-03T03:06:23;1.00;;;0.52;;
11490;SDS011;5802;52.832;4.758;2023-04-03T03:08:49;0.63;;;0.50;;
11490;SDS011;5802;52.832;4.758;2023-04-03T03:11:16;0.70;;;0.55;;
11490;SDS011;5802;52.832;4.758;2023-04-03T03:13:43;0.45;;;0.40;;
11490;SDS011;5802;52.832;4.758;2023-04-03T03:16:11;0.85;;;0.50;;
11490;SDS011;5802;52.832;4.758;2023-04-03T03:18:38;0.70;;;0.50;;
11490;SDS011;5802;52.832;4.758;2023-04-03T03:21:05;0.77;;;0.50;;
11490;SDS011;5802;52.832;4.758;2023-04-03T03:23:32;0.70;;;0.38;;
11490;SDS011;5802;52.832;4.758;2023-04-03T03:26:00;0.60;;;0.30;;
11490;SDS011;5802;52.832;4.758;2023-04-03T03:28:28;0.80;;;0.55;;
11490;SDS011;5802;52.832;4.758;2023-04-03T03:30:55;1.17;;;0.50;;
11490;SDS011;5802;52.832;4.758;2023-04-03T03:33:23;0.50;;;0.40;;
11490;SDS011;5802;52.832;4.758;2023-04-03T03:35:51;0.30;;;0.30;;
11490;SDS011;5802;52.832;4.758;2023-04-03T03:38:17;1.25;;;0.40;;
11490;SDS011;5802;52.832;4.758;2023-04-03T03:40:46;0.60;;;0.50;;
11490;SDS011;5802;52.832;4.758;2023-04-03T03:43:13;0.38;;;0.38;;
11490;SDS011;5802;52.832;4.758;2023-04-03T03:45:39;0.32;;;0.32;;
11490;SDS011;5802;52.832;4.758;2023-04-03T03:48:07;1.00;;;0.65;;
11490;SDS011;5802;52.832;4.758;2023-04-03T03:50:35;0.30;;;0.30;;
11490;SDS011;5802;52.832;4.758;2023-04-03T03:53:01;0.93;;;0.55;;
11490;SDS011;5802;52.832;4.758;2023-04-03T03:55:28;0.75;;;0.40;;
11490;SDS011;5802;52.832;4.758;2023-04-03T03:57:55;0.30;;;0.30;;
11490;SDS011;5802;52.832;4.758;2023-04-03T04:00:21;0.77;;;0.43;;
11490;SDS011;5802;52.832;4.758;2023-04-03T04:02:48;0.50;;;0.30;;
11490;SDS011;5802;52.832;4.758;2023-04-03T04:05:15;0.45;;;0.35;;
11490;SDS011;5802;52.832;4.758;2023-04-03T04:07:43;0.55;;;0.50;;
11490;SDS011;5802;52.832;4.758;2023-04-03T04:10:09;0.40;;;0.40;;
11490;SDS011;5802;52.832;4.758;2023-04-03T04:12:36;1.00;;;0.50;;
11490;SDS011;5802;52.832;4.758;2023-04-03T04:15:03;1.67;;;0.57;;
11490;SDS011;5802;52.832;4.758;2023-04-03T04:17:31;0.70;;;0.35;;
11490;SDS011;5802;52.832;4.758;2023-04-03T04:20:00;0.70;;;0.50;;
11490;SDS011;5802;52.832;4.758;2023-04-03T04:22:27;0.35;;;0.30;;
11490;SDS011;5802;52.832;4.758;2023-04-03T04:24:55;0.70;;;0.40;;
11490;SDS011;5802;52.832;4.758;2023-04-03T04:27:22;2.58;;;0.50;;
11490;SDS011;5802;52.832;4.758;2023-04-03T04:29:48;1.40;;;0.55;;
11490;SDS011;5802;52.832;4.758;2023-04-03T04:32:15;0.65;;;0.45;;
11490;SDS011;5802;52.832;4.758;2023-04-03T04:34:42;0.45;;;0.45;;
11490;SDS011;5802;52.832;4.758;2023-04-03T04:37:09;0.50;;;0.40;;
11490;SDS011;5802;52.832;4.758;2023-04-03T04:39:35;0.32;;;0.25;;
11490;SDS011;5802;52.832;4.758;2023-04-03T04:42:03;0.43;;;0.30;;
11490;SDS011;5802;52.832;4.758;2023-04-03T04:44:32;0.63;;;0.40;;
11490;SDS011;5802;52.832;4.758;2023-04-03T04:46:58;0.65;;;0.45;;
11490;SDS011;5802;52.832;4.758;2023-04-03T04:49:25;0.47;;;0.40;;
11490;SDS011;5802;52.832;4.758;2023-04-03T04:51:52;2.00;;;0.43;;
11490;SDS011;5802;52.832;4.758;2023-04-03T04:54:19;0.63;;;0.47;;
11490;SDS011;5802;52.832;4.758;2023-04-03T04:56:46;0.40;;;0.30;;
11490;SDS011;5802;52.832;4.758;2023-04-03T04:59:14;0.50;;;0.40;;
11490;SDS011;5802;52.832;4.758;2023-04-03T05:01:41;2.10;;;0.40;;
11490;SDS011;5802;52.832;4.758;2023-04-03T05:04:07;0.68;;;0.50;;
11490;SDS011;5802;52.832;4.758;2023-04-03T05:06:35;0.75;;;0.40;;
11490;SDS011;5802;52.832;4.758;2023-04-03T05:09:01;0.60;;;0.45;;
11490;SDS011;5802;52.832;4.758;2023-04-03T05:11:28;1.10;;;0.40;;
11490;SDS011;5802;52.832;4.758;2023-04-03T05:13:55;0.60;;;0.50;;
11490;SDS011;5802;52.832;4.758;2023-04-03T05:16:23;0.60;;;0.52;;
11490;SDS011;5802;52.832;4.758;2023-04-03T05:18:50;0.70;;;0.50;;
11490;SDS011;5802;52.832;4.758;2023-04-03T05:21:17;0.55;;;0.52;;
11490;SDS011;5802;52.832;4.758;2023-04-03T05:23:44;1.17;;;0.63;;
11490;SDS011;5802;52.832;4.758;2023-04-03T05:26:10;0.85;;;0.40;;
11490;SDS011;5802;52.832;4.758;2023-04-03T05:28:37;0.35;;;0.30;;
11490;SDS011;5802;52.832;4.758;2023-04-03T05:31:04;0.93;;;0.45;;
11490;SDS011;5802;52.832;4.758;2023-04-03T05:33:32;1.00;;;0.52;;
11490;SDS011;5802;52.832;4.758;2023-04-03T05:36:01;1.25;;;0.63;;
11490;SDS011;5802;52.832;4.758;2023-04-03T05:38:29;0.40;;;0.40;;
11490;SDS011;5802;52.832;4.758;2023-04-03T05:40:56;0.75;;;0.47;;
11490;SDS011;5802;52.832;4.758;2023-04-03T05:43:22;0.73;;;0.40;;
11490;SDS011;5802;52.832;4.758;2023-04-03T05:45:50;0.30;;;0.30;;
11490;SDS011;5802;52.832;4.758;2023-04-03T05:48:17;0.60;;;0.30;;
11490;SDS011;5802;52.832;4.758;2023-04-03T05:50:45;0.77;;;0.40;;
11490;SDS011;5802;52.832;4.758;2023-04-03T05:53:12;1.15;;;0.50;;
11490;SDS011;5802;52.832;4.758;2023-04-03T05:55:43;0.35;;;0.30;;
11490;SDS011;5802;52.832;4.758;2023-04-03T05:58:10;0.93;;;0.45;;
11490;SDS011;5802;52.832;4.758;2023-04-03T06:00:37;0.70;;;0.50;;
11490;SDS011;5802;52.832;4.758;2023-04-03T06:03:05;0.45;;;0.40;;
11490;SDS011;5802;52.832;4.758;2023-04-03T06:05:32;0.85;;;0.52;;
11490;SDS011;5802;52.832;4.758;2023-04-03T06:08:00;0.82;;;0.65;;
11490;SDS011;5802;52.832;4.758;2023-04-03T06:10:26;0.75;;;0.30;;
11490;SDS011;5802;52.832;4.758;2023-04-03T06:12:53;0.50;;;0.50;;
11490;SDS011;5802;52.832;4.758;2023-04-03T06:15:20;1.90;;;0.70;;
11490;SDS011;5802;52.832;4.758;2023-04-03T06:17:47;0.75;;;0.55;;
11490;SDS011;5802;52.832;4.758;2023-04-03T06:20:13;3.15;;;0.60;;
11490;SDS011;5802;52.832;4.758;2023-04-03T06:22:41;1.48;;;0.77;;
11490;SDS011;5802;52.832;4.758;2023-04-03T06:25:09;0.50;;;0.40;;
11490;SDS011;5802;52.832;4.758;2023-04-03T06:27:36;1.67;;;0.60;;
11490;SDS011;5802;52.832;4.758;2023-04-03T06:30:03;1.17;;;0.40;;
11490;SDS011;5802;52.832;4.758;2023-04-03T06:32:32;0.80;;;0.50;;
11490;SDS011;5802;52.832;4.758;2023-04-03T06:34:59;1.92;;;0.45;;
11490;SDS011;5802;52.832;4.758;2023-04-03T06:37:25;1.02;;;0.60;;
11490;SDS011;5802;52.832;4.758;2023-04-03T06:39:53;1.33;;;0.63;;
11490;SDS011;5802;52.832;4.758;2023-04-03T06:42:21;1.25;;;0.50;;
11490;SDS011;5802;52.832;4.758;2023-04-03T06:44:49;0.47;;;0.35;;
11490;SDS011;5802;52.832;4.758;2023-04-03T06:47:16;0.40;;;0.40;;
11490;SDS011;5802;52.832;4.758;2023-04-03T06:49:43;0.98;;;0.50;;
11490;SDS011;5802;52.832;4.758;2023-04-03T06:52:10;0.50;;;0.50;;
11490;SDS011;5802;52.832;4.758;2023-04-03T06:54:38;0.75;;;0.60;;
11490;SDS011;5802;52.832;4.758;2023-04-03T06:57:06;0.70;;;0.60;;
11490;SDS011;5802;52.832;4.758;2023-04-03T06:59:34;1.13;;;0.55;;
11490;SDS011;5802;52.832;4.758;2023-04-03T07:02:01;0.68;;;0.43;;
11490;SDS011;5802;52.832;4.758;2023-04-03T07:04:28;1.15;;;0.57;;
11490;SDS011;5802;52.832;4.758;2023-04-03T07:06:55;0.80;;;0.60;;
11490;SDS011;5802;52.832;4.758;2023-04-03T07:09:22;1.00;;;0.50;;
11490;SDS011;5802;52.832;4.758;2023-04-03T07:11:49;0.32;;;0.22;;
11490;SDS011;5802;52.832;4.758;2023-04-03T07:14:16;0.70;;;0.50;;
11490;SDS011;5802;52.832;4.758;2023-04-03T07:16:44;0.95;;;0.50;;
11490;SDS011;5802;52.832;4.758;2023-04-03T07:19:11;0.52;;;0.40;;
11490;SDS011;5802;52.832;4.758;2023-04-03T07:21:37;1.30;;;0.68;;
11490;SDS011;5802;52.832;4.758;2023-04-03T07:24:07;2.50;;;0.70;;
11490;SDS011;5802;52.832;4.758;2023-04-03T07:26:33;1.05;;;0.50;;
11490;SDS011;5802;52.832;4.758;2023-04-03T07:29:00;0.82;;;0.40;;
11490;SDS011;5802;52.832;4.758;2023-04-03T07:31:28;1.98;;;0.70;;
11490;SDS011;5802;52.832;4.758;2023-04-03T07:33:56;3.47;;;0.70;;
11490;SDS011;5802;52.832;4.758;2023-04-03T07:36:22;1.45;;;0.40;;
11490;SDS011;5802;52.832;4.758;2023-04-03T07:38:49;2.78;;;0.57;;
11490;SDS011;5802;52.832;4.758;2023-04-03T07:41:17;0.90;;;0.50;;
11490;SDS011;5802;52.832;4.758;2023-04-03T07:43:46;0.85;;;0.50;;
11490;SDS011;5802;52.832;4.758;2023-04-03T07:46:14;2.72;;;0.70;;
11490;SDS011;5802;52.832;4.758;2023-04-03T07:48:42;2.13;;;0.52;;
11490;SDS011;5802;52.832;4.758;2023-04-03T07:51:11;1.08;;;0.40;;
11490;SDS011;5802;52.832;4.758;2023-04-03T07:53:38;0.80;;;0.70;;
11490;SDS011;5802;52.832;4.758;2023-04-03T07:56:05;0.40;;;0.30;;
11490;SDS011;5802;52.832;4.758;2023-04-03T07:58:32;0.88;;;0.40;;
11490;SDS011;5802;52.832;4.758;2023-04-03T08:00:59;0.65;;;0.57;;
11490;SDS011;5802;52.832;4.758;2023-04-03T08:03:26;0.73;;;0.60;;
11490;SDS011;5802;52.832;4.758;2023-04-03T08:05:53;0.68;;;0.50;;
11490;SDS011;5802;52.832;4.758;2023-04-03T08:08:21;0.68;;;0.40;;
11490;SDS011;5802;52.832;4.758;2023-04-03T08:10:49;0.80;;;0.60;;
11490;SDS011;5802;52.832;4.758;2023-04-03T08:13:17;0.98;;;0.52;;
11490;SDS011;5802;52.832;4.758;2023-04-03T08:15:44;1.95;;;0.50;;
11490;SDS011;5802;52.832;4.758;2023-04-03T08:18:11;1.20;;;0.60;;
11490;SDS011;5802;52.832;4.758;2023-04-03T08:20:38;1.38;;;0.57;;
11490;SDS011;5802;52.832;4.758;2023-04-03T08:23:05;1.08;;;0.50;;
11490;SDS011;5802;52.832;4.758;2023-04-03T08:25:33;0.57;;;0.50;;
11490;SDS011;5802;52.832;4.758;2023-04-03T08:28:00;0.40;;;0.40;;
11490;SDS011;5802;52.832;4.758;2023-04-03T08:30:27;1.25;;;0.63;;
11490;SDS011;5802;52.832;4.758;2023-04-03T08:32:54;1.40;;;0.60;;
11490;SDS011;5802;52.832;4.758;2023-04-03T08:35:20;0.30;;;0.30;;
11490;SDS011;5802;52.832;4.758;2023-04-03T08:37:47;0.43;;;0.30;;
11490;SDS011;5802;52.832;4.758;2023-04-03T08:40:14;0.47;;;0.40;;
11490;SDS011;5802;52.832;4.758;2023-04-03T08:42:47;0.93;;;0.50;;
11490;SDS011;5802;52.832;4.758;2023-04-03T08:45:25;0.88;;;0.70;;
11490;SDS011;5802;52.832;4.758;2023-04-03T08:48:00;0.40;;;0.40;;
11490;SDS011;5802;52.832;4.758;2023-04-03T08:50:33;0.70;;;0.47;;
11490;SDS011;5802;52.832;4.758;2023-04-03T08:53:05;1.38;;;0.77;;
11490;SDS011;5802;52.832;4.758;2023-04-03T08:55:39;0.75;;;0.50;;
11490;SDS011;5802;52.832;4.758;2023-04-03T08:58:11;1.33;;;0.68;;
11490;SDS011;5802;52.832;4.758;2023-04-03T09:00:43;0.85;;;0.50;;
11490;SDS011;5802;52.832;4.758;2023-04-03T09:03:11;0.95;;;0.68;;
11490;SDS011;5802;52.832;4.758;2023-04-03T09:05:40;1.08;;;0.50;;
11490;SDS011;5802;52.832;4.758;2023-04-03T09:08:13;1.17;;;0.70;;
11490;SDS011;5802;52.832;4.758;2023-04-03T09:10:47;0.65;;;0.63;;
11490;SDS011;5802;52.832;4.758;2023-04-03T09:13:20;1.27;;;0.50;;
11490;SDS011;5802;52.832;4.758;2023-04-03T09:15:52;0.60;;;0.40;;
11490;SDS011;5802;52.832;4.758;2023-04-03T09:18:20;0.73;;;0.60;;
11490;SDS011;5802;52.832;4.758;2023-04-03T09:20:54;0.55;;;0.40;;
11490;SDS011;5802;52.832;4.758;2023-04-03T09:23:28;1.45;;;0.73;;
11490;SDS011;5802;52.832;4.758;2023-04-03T09:26:01;0.80;;;0.50;;
11490;SDS011;5802;52.832;4.758;2023-04-03T09:28:31;1.08;;;0.80;;
11490;SDS011;5802;52.832;4.758;2023-04-03T09:31:00;0.95;;;0.63;;
11490;SDS011;5802;52.832;4.758;2023-04-03T09:33:32;0.82;;;0.68;;
11490;SDS011;5802;52.832;4.758;2023-04-03T09:36:00;0.75;;;0.63;;
11490;SDS011;5802;52.832;4.758;2023-04-03T09:38:26;0.95;;;0.75;;
11490;SDS011;5802;52.832;4.758;2023-04-03T09:41:02;1.30;;;0.70;;
11490;SDS011;5802;52.832;4.758;2023-04-03T09:43:33;1.15;;;0.70;;
11490;SDS011;5802;52.832;4.758;2023-04-03T09:46:18;0.70;;;0.50;;
11490;SDS011;5802;52.832;4.758;2023-04-03T09:48:55;0.68;;;0.60;;
11490;SDS011;5802;52.832;4.758;2023-04-03T09:51:24;1.58;;;0.80;;
11490;SDS011;5802;52.832;4.758;2023-04-03T09:53:52;1.17;;;0.65;;
11490;SDS011;5802;52.832;4.758;2023-04-03T09:56:20;2.35;;;0.60;;
11490;SDS011;5802;52.832;4.758;2023-04-03T09:58:51;1.38;;;0.50;;
11490;SDS011;5802;52.832;4.758;2023-04-03T10:01:33;2.30;;;0.70;;
11490;SDS011;5802;52.832;4.758;2023-04-03T10:04:06;0.90;;;0.60;;
11490;SDS011;5802;52.832;4.758;2023-04-03T10:06:35;0.60;;;0.47;;
11490;SDS011;5802;52.832;4.758;2023-04-03T10:09:15;0.85;;;0.45;;
11490;SDS011;5802;52.832;4.758;2023-04-03T10:11:57;2.47;;;0.80;;
11490;SDS011;5802;52.832;4.758;2023-04-03T10:14:27;2.10;;;0.85;;
11490;SDS011;5802;52.832;4.758;2023-04-03T10:16:57;1.75;;;0.80;;
11490;SDS011;5802;52.832;4.758;2023-04-03T10:19:40;1.90;;;0.88;;
11490;SDS011;5802;52.832;4.758;2023-04-03T10:22:14;3.35;;;1.13;;
11490;SDS011;5802;52.832;4.758;2023-04-03T10:24:48;3.80;;;1.40;;
11490;SDS011;5802;52.832;4.758;2023-04-03T10:27:26;4.43;;;1.20;;
11490;SDS011;5802;52.832;4.758;2023-04-03T10:30:07;6.38;;;1.77;;
11490;SDS011;5802;52.832;4.758;2023-04-03T10:32:48;4.82;;;1.40;;
11490;SDS011;5802;52.832;4.758;2023-04-03T10:35:25;3.08;;;1.45;;
11490;SDS011;5802;52.832;4.758;2023-04-03T10:38:04;3.67;;;1.55;;
11490;SDS011;5802;52.832;4.758;2023-04-03T10:40:39;6.00;;;1.75;;
11490;SDS011;5802;52.832;4.758;2023-04-03T10:43:14;3.25;;;1.60;;
11490;SDS011;5802;52.832;4.758;2023-04-03T10:45:51;3.40;;;1.50;;
11490;SDS011;5802;52.832;4.758;2023-04-03T10:51:21;4.50;;;1.42;;
11490;SDS011;5802;52.832;4.758;2023-04-03T10:53:52;5.47;;;1.45;;
11490;SDS011;5802;52.832;4.758;2023-04-03T10:56:30;3.17;;;1.52;;
11490;SDS011;5802;52.832;4.758;2023-04-03T10:59:01;5.28;;;1.40;;
11490;SDS011;5802;52.832;4.758;2023-04-03T11:01:40;3.08;;;1.40;;
11490;SDS011;5802;52.832;4.758;2023-04-03T11:04:10;2.83;;;1.20;;
11490;SDS011;5802;52.832;4.758;2023-04-03T11:06:39;4.68;;;1.50;;
11490;SDS011;5802;52.832;4.758;2023-04-03T11:09:12;3.30;;;1.33;;
11490;SDS011;5802;52.832;4.758;2023-04-03T11:11:45;1.80;;;0.85;;
11490;SDS011;5802;52.832;4.758;2023-04-03T11:14:15;3.90;;;1.40;;
11490;SDS011;5802;52.832;4.758;2023-04-03T11:16:51;2.63;;;1.30;;
11490;SDS011;5802;52.832;4.758;2023-04-03T11:19:27;3.53;;;1.58;;
11490;SDS011;5802;52.832;4.758;2023-04-03T11:22:01;5.78;;;1.30;;
11490;SDS011;5802;52.832;4.758;2023-04-03T11:24:32;3.58;;;1.10;;
11490;SDS011;5802;52.832;4.758;2023-04-03T11:27:04;4.63;;;1.10;;
11490;SDS011;5802;52.832;4.758;2023-04-03T11:29:38;4.07;;;0.93;;
11490;SDS011;5802;52.832;4.758;2023-04-03T11:32:11;2.17;;;1.08;;
11490;SDS011;5802;52.832;4.758;2023-04-03T11:34:52;3.58;;;1.27;;
11490;SDS011;5802;52.832;4.758;2023-04-03T11:37:27;2.83;;;1.05;;
11490;SDS011;5802;52.832;4.758;2023-04-03T11:39:58;2.53;;;1.10;;
11490;SDS011;5802;52.832;4.758;2023-04-03T11:42:30;3.90;;;1.10;;
11490;SDS011;5802;52.832;4.758;2023-04-03T11:45:22;2.47;;;1.23;;
11490;SDS011;5802;52.832;4.758;2023-04-03T11:47:56;3.38;;;1.00;;
11490;SDS011;5802;52.832;4.758;2023-04-03T11:50:30;2.28;;;0.95;;
11490;SDS011;5802;52.832;4.758;2023-04-03T11:53:26;1.80;;;0.80;;
11490;SDS011;5802;52.832;4.758;2023-04-03T11:56:00;0.88;;;0.60;;
11490;SDS011;5802;52.832;4.758;2023-04-03T11:58:31;3.15;;;0.88;;
11490;SDS011;5802;52.832;4.758;2023-04-03T12:01:00;1.80;;;0.88;;
11490;SDS011;5802;52.832;4.758;2023-04-03T12:06:50;1.58;;;0.80;;
11490;SDS011;5802;52.832;4.758;2023-04-03T12:12:26;1.25;;;0.82;;
11490;SDS011;5802;52.832;4.758;2023-04-03T12:14:55;1.73;;;0.68;;
11490;SDS011;5802;52.832;4.758;2023-04-03T12:17:37;1.77;;;0.77;;
11490;SDS011;5802;52.832;4.758;2023-04-03T12:23:21;0.98;;;0.70;;
11490;SDS011;5802;52.832;4.758;2023-04-03T12:25:51;2.30;;;0.80;;
11490;SDS011;5802;52.832;4.758;2023-04-03T12:28:26;1.52;;;0.77;;
11490;SDS011;5802;52.832;4.758;2023-04-03T12:30:53;1.88;;;0.80;;
11490;SDS011;5802;52.832;4.758;2023-04-03T12:33:23;0.95;;;0.60;;
11490;SDS011;5802;52.832;4.758;2023-04-03T12:36:03;1.15;;;0.70;;
11490;SDS011;5802;52.832;4.758;2023-04-03T12:38:45;0.75;;;0.50;;
11490;SDS011;5802;52.832;4.758;2023-04-03T12:41:24;0.73;;;0.50;;
11490;SDS011;5802;52.832;4.758;2023-04-03T12:44:01;1.50;;;0.60;;
11490;SDS011;5802;52.832;4.758;2023-04-03T12:46:43;1.50;;;0.80;;
11490;SDS011;5802;52.832;4.758;2023-04-03T12:49:14;1.65;;;0.70;;
11490;SDS011;5802;52.832;4.758;2023-04-03T12:51:50;0.60;;;0.50;;
11490;SDS011;5802;52.832;4.758;2023-04-03T12:54:20;1.73;;;0.70;;
11490;SDS011;5802;52.832;4.758;2023-04-03T12:56:49;1.08;;;0.68;;
11490;SDS011;5802;52.832;4.758;2023-04-03T12:59:18;0.90;;;0.55;;
11490;SDS011;5802;52.832;4.758;2023-04-03T13:01:52;1.52;;;0.80;;
11490;SDS011;5802;52.832;4.758;2023-04-03T13:04:19;1.02;;;0.52;;
11490;SDS011;5802;52.832;4.758;2023-04-03T13:06:47;0.50;;;0.50;;
11490;SDS011;5802;52.832;4.758;2023-04-03T13:09:18;1.25;;;0.60;;
11490;SDS011;5802;52.832;4.758;2023-04-03T13:11:49;1.40;;;0.90;;
11490;SDS011;5802;52.832;4.758;2023-04-03T13:14:20;0.68;;;0.55;;
11490;SDS011;5802;52.832;4.758;2023-04-03T13:16:54;0.82;;;0.55;;
11490;SDS011;5802;52.832;4.758;2023-04-03T13:19:22;0.80;;;0.52;;
11490;SDS011;5802;52.832;4.758;2023-04-03T13:21:50;0.93;;;0.68;;
11490;SDS011;5802;52.832;4.758;2023-04-03T13:24:23;0.50;;;0.35;;
11490;SDS011;5802;52.832;4.758;2023-04-03T13:26:51;0.90;;;0.57;;
11490;SDS011;5802;52.832;4.758;2023-04-03T13:29:20;1.23;;;0.52;;
11490;SDS011;5802;52.832;4.758;2023-04-03T13:31:52;2.85;;;0.50;;
11490;SDS011;5802;52.832;4.758;2023-04-03T13:34:21;6.85;;;0.70;;
11490;SDS011;5802;52.832;4.758;2023-04-03T13:36:55;3.00;;;0.60;;
11490;SDS011;5802;52.832;4.758;2023-04-03T13:39:26;0.80;;;0.50;;
11490;SDS011;5802;52.832;4.758;2023-04-03T13:41:54;1.45;;;0.38;;
11490;SDS011;5802;52.832;4.758;2023-04-03T13:44:27;1.48;;;0.60;;
11490;SDS011;5802;52.832;4.758;2023-04-03T13:46:58;1.42;;;0.63;;
11490;SDS011;5802;52.832;4.758;2023-04-03T13:49:30;1.42;;;0.40;;
11490;SDS011;5802;52.832;4.758;2023-04-03T13:51:58;1.42;;;0.63;;
11490;SDS011;5802;52.832;4.758;2023-04-03T13:54:29;1.23;;;0.60;;
11490;SDS011;5802;52.832;4.758;2023-04-03T13:56:58;0.80;;;0.57;;
11490;SDS011;5802;52.832;4.758;2023-04-03T13:59:28;1.08;;;0.65;;
11490;SDS011;5802;52.832;4.758;2023-04-03T14:02:09;0.57;;;0.40;;
11490;SDS011;5802;52.832;4.758;2023-04-03T14:04:48;0.50;;;0.43;;
11490;SDS011;5802;52.832;4.758;2023-04-03T14:07:18;1.50;;;0.63;;
11490;SDS011;5802;52.832;4.758;2023-04-03T14:09:47;3.92;;;0.40;;
11490;SDS011;5802;52.832;4.758;2023-04-03T14:12:17;1.13;;;0.60;;
11490;SDS011;5802;52.832;4.758;2023-04-03T14:14:50;2.30;;;0.60;;
11490;SDS011;5802;52.832;4.758;2023-04-03T14:17:18;0.60;;;0.40;;
11490;SDS011;5802;52.832;4.758;2023-04-03T14:19:47;2.05;;;0.60;;
11490;SDS011;5802;52.832;4.758;2023-04-03T14:22:15;1.55;;;0.30;;
11490;SDS011;5802;52.832;4.758;2023-04-03T14:24:43;1.02;;;0.50;;
11490;SDS011;5802;52.832;4.758;2023-04-03T14:27:15;1.70;;;0.55;;
11490;SDS011;5802;52.832;4.758;2023-04-03T14:29:44;1.00;;;0.63;;
11490;SDS011;5802;52.832;4.758;2023-04-03T14:32:11;2.47;;;0.40;;
11490;SDS011;5802;52.832;4.758;2023-04-03T14:34:39;1.05;;;0.40;;
11490;SDS011;5802;52.832;4.758;2023-04-03T14:37:09;1.33;;;0.47;;
11490;SDS011;5802;52.832;4.758;2023-04-03T14:39:37;1.02;;;0.55;;
11490;SDS011;5802;52.832;4.758;2023-04-03T14:42:03;0.85;;;0.52;;
11490;SDS011;5802;52.832;4.758;2023-04-03T14:44:31;0.88;;;0.50;;
11490;SDS011;5802;52.832;4.758;2023-04-03T14:46:58;0.68;;;0.50;;
11490;SDS011;5802;52.832;4.758;2023-04-03T14:49:26;0.52;;;0.47;;
11490;SDS011;5802;52.832;4.758;2023-04-03T14:51:54;0.30;;;0.30;;
11490;SDS011;5802;52.832;4.758;2023-04-03T14:54:21;0.40;;;0.22;;
11490;SDS011;5802;52.832;4.758;2023-04-03T14:56:52;0.57;;;0.40;;
11490;SDS011;5802;52.832;4.758;2023-04-03T14:59:20;0.63;;;0.50;;
11490;SDS011;5802;52.832;4.758;2023-04-03T15:01:48;2.47;;;0.60;;
11490;SDS011;5802;52.832;4.758;2023-04-03T15:04:16;1.38;;;0.77;;
11490;SDS011;5802;52.832;4.758;2023-04-03T15:06:44;3.45;;;0.70;;
11490;SDS011;5802;52.832;4.758;2023-04-03T15:09:15;0.93;;;0.47;;
11490;SDS011;5802;52.832;4.758;2023-04-03T15:11:46;2.55;;;0.40;;
11490;SDS011;5802;52.832;4.758;2023-04-03T15:14:13;1.67;;;0.60;;
11490;SDS011;5802;52.832;4.758;2023-04-03T15:16:39;2.25;;;0.70;;
11490;SDS011;5802;52.832;4.758;2023-04-03T15:19:08;1.58;;;0.60;;
11490;SDS011;5802;52.832;4.758;2023-04-03T15:21:35;1.02;;;0.50;;
11490;SDS011;5802;52.832;4.758;2023-04-03T15:24:01;2.67;;;0.85;;
11490;SDS011;5802;52.832;4.758;2023-04-03T15:26:28;7.70;;;0.55;;
11490;SDS011;5802;52.832;4.758;2023-04-03T15:28:55;6.15;;;0.80;;